Time;durP1;ratioP1;P1;durP2;ratioP2;P2;SDS_P1;SDS_P2;PMS_P1;PMS_P2;Temp;Humidity;BMP_temperature;BMP_pressure;BME280_temperature;BME280_humidity;BME280_pressure;Samples;Min_cycle;Max_cycle;Signal;HPM_P1;HPM_P2
2022/11/01 00:00:11;;;;;;;9.68;4.85;;;13.50;99.90;;;;;;5053252;28;20521;-83
2022/11/01 00:02:37;;;;;;;17.00;5.70;;;13.60;99.90;;;;;;5052359;28;20059;-84
2022/11/01 00:05:02;;;;;;;15.65;5.75;;;13.60;99.90;;;;;;5032911;28;20041;-83
2022/11/01 00:07:28;;;;;;;9.70;5.43;;;13.60;99.90;;;;;;5045504;28;20041;-84
2022/11/01 00:09:54;;;;;;;9.20;4.85;;;13.60;99.90;;;;;;5053099;28;20029;-84
2022/11/01 00:12:19;;;;;;;10.32;4.43;;;13.60;99.90;;;;;;5012591;28;20033;-83
2022/11/01 00:14:45;;;;;;;15.30;4.90;;;13.50;99.90;;;;;;5032441;28;20060;-83
2022/11/01 00:17:11;;;;;;;10.05;4.60;;;13.60;99.90;;;;;;5000245;28;20099;-83
2022/11/01 00:19:37;;;;;;;11.10;5.22;;;13.50;99.90;;;;;;5016590;28;20195;-82
2022/11/01 00:22:02;;;;;;;11.93;5.95;;;13.60;99.90;;;;;;5034414;28;20037;-82
2022/11/01 00:24:32;;;;;;;9.30;4.97;;;13.60;99.90;;;;;;5024544;28;20037;-82
2022/11/01 00:27:01;;;;;;;11.02;5.07;;;13.60;99.90;;;;;;5052826;28;20083;-83
2022/11/01 00:29:26;;;;;;;13.05;5.00;;;13.70;99.90;;;;;;5036306;28;20087;-84
2022/11/01 00:31:52;;;;;;;10.55;4.60;;;13.70;99.90;;;;;;5036128;28;20037;-84
2022/11/01 00:34:18;;;;;;;11.73;4.50;;;13.70;99.90;;;;;;5019304;28;20498;-84
2022/11/01 00:36:43;;;;;;;13.43;4.45;;;13.80;99.90;;;;;;5028818;28;20049;-84
2022/11/01 00:39:13;;;;;;;11.82;4.72;;;13.80;99.90;;;;;;5019296;28;20037;-84
2022/11/01 00:41:38;;;;;;;13.57;5.03;;;13.80;99.90;;;;;;5052736;28;20036;-84
2022/11/01 00:44:04;;;;;;;15.63;4.75;;;13.80;99.90;;;;;;5052580;28;20356;-84
2022/11/01 00:46:31;;;;;;;7.93;4.32;;;13.80;99.90;;;;;;5052432;28;20410;-84
2022/11/01 00:48:56;;;;;;;12.80;4.63;;;13.80;99.90;;;;;;5052396;28;20072;-84
2022/11/01 00:51:22;;;;;;;14.77;4.75;;;13.80;99.90;;;;;;5043210;28;20530;-84
2022/11/01 00:53:48;;;;;;;11.43;5.07;;;13.80;99.90;;;;;;5052313;28;20125;-84
2022/11/01 00:56:14;;;;;;;9.45;4.22;;;13.90;99.90;;;;;;5051998;28;20068;-84
2022/11/01 00:58:39;;;;;;;10.05;4.22;;;13.90;99.90;;;;;;5044870;28;20056;-84
2022/11/01 01:01:05;;;;;;;10.02;4.20;;;14.00;99.90;;;;;;5035607;28;20102;-84
2022/11/01 01:03:31;;;;;;;6.63;3.72;;;14.00;99.90;;;;;;5035550;28;20041;-84
2022/11/01 01:05:57;;;;;;;11.18;4.22;;;14.00;99.90;;;;;;5035120;28;20033;-84
2022/11/01 01:08:23;;;;;;;16.25;4.22;;;14.00;99.90;;;;;;5051552;28;20035;-84
2022/11/01 01:10:49;;;;;;;9.52;4.07;;;14.00;99.90;;;;;;5035675;28;20129;-84
2022/11/01 01:13:16;;;;;;;9.55;4.43;;;14.10;99.90;;;;;;5052389;28;20127;-84
2022/11/01 01:15:42;;;;;;;15.40;5.53;;;14.10;99.90;;;;;;5052433;28;20060;-84
2022/11/01 01:18:08;;;;;;;7.70;3.78;;;14.10;99.90;;;;;;5051279;28;20505;-82
2022/11/01 01:20:34;;;;;;;10.95;4.18;;;14.10;99.90;;;;;;5051859;28;20133;-82
2022/11/01 01:23:00;;;;;;;8.05;3.78;;;14.10;99.90;;;;;;5035297;28;20119;-82
2022/11/01 01:25:25;;;;;;;7.03;3.42;;;14.10;99.90;;;;;;5035361;28;20079;-82
2022/11/01 01:27:51;;;;;;;10.57;5.25;;;14.10;99.90;;;;;;5051612;28;20075;-82
2022/11/01 01:30:17;;;;;;;10.50;4.22;;;14.20;99.90;;;;;;5035251;28;20037;-81
2022/11/01 01:32:42;;;;;;;9.02;3.70;;;14.20;99.90;;;;;;5035268;28;20032;-82
2022/11/01 01:35:09;;;;;;;9.23;4.00;;;14.10;99.90;;;;;;5035356;28;20211;-84
2022/11/01 01:37:35;;;;;;;10.43;3.72;;;14.10;99.90;;;;;;5051715;28;20106;-84
2022/11/01 01:40:00;;;;;;;12.20;3.95;;;14.10;99.90;;;;;;5046625;28;20045;-84
2022/11/01 01:42:40;;;;;;;15.15;4.53;;;14.10;99.90;;;;;;5032132;28;20441;-84
2022/11/01 01:45:25;;;;;;;9.38;3.90;;;14.10;99.90;;;;;;5032059;28;20132;-84
2022/11/01 01:47:53;;;;;;;10.88;3.83;;;14.10;99.90;;;;;;5040129;28;20438;-84
2022/11/01 01:50:30;;;;;;;10.48;4.78;;;14.10;99.90;;;;;;5040773;28;20387;-84
2022/11/01 01:53:22;;;;;;;7.43;3.63;;;14.10;99.90;;;;;;5049702;28;20044;-84
2022/11/01 01:56:30;;;;;;;7.45;3.55;;;14.10;99.90;;;;;;5051558;28;20095;-84
2022/11/01 01:59:02;;;;;;;7.13;3.25;;;14.10;99.90;;;;;;4974968;28;20137;-84
2022/11/01 02:01:29;;;;;;;10.07;3.90;;;14.10;99.90;;;;;;4958872;28;20401;-84
2022/11/01 02:03:55;;;;;;;6.03;3.45;;;14.10;99.90;;;;;;5022380;28;20095;-84
2022/11/01 02:06:22;;;;;;;9.55;3.58;;;14.10;99.90;;;;;;5050220;28;20076;-84
2022/11/01 02:09:00;;;;;;;9.98;4.43;;;14.10;99.90;;;;;;5035861;28;20071;-83
2022/11/01 02:11:26;;;;;;;8.98;3.67;;;14.20;99.90;;;;;;5046647;28;20380;-83
2022/11/01 02:13:52;;;;;;;9.23;3.85;;;14.20;99.90;;;;;;5039022;28;20048;-82
2022/11/01 02:17:02;;;;;;;8.43;3.53;;;14.20;99.90;;;;;;5038632;28;20037;-83
2022/11/01 02:20:12;;;;;;;10.25;3.75;;;14.20;99.90;;;;;;5043401;28;20033;-83
2022/11/01 02:23:03;;;;;;;10.40;3.60;;;14.20;99.90;;;;;;5045798;28;20376;-83
2022/11/01 02:25:29;;;;;;;10.45;3.65;;;14.20;99.90;;;;;;5008708;28;20402;-82
2022/11/01 02:28:31;;;;;;;8.95;3.00;;;14.30;99.90;;;;;;5038269;28;20037;-81
2022/11/01 02:31:14;;;;;;;8.13;3.70;;;14.30;99.90;;;;;;5050282;28;20064;-82
2022/11/01 02:33:52;;;;;;;10.82;3.80;;;14.30;99.90;;;;;;5054627;28;20076;-82
2022/11/01 02:36:33;;;;;;;6.07;3.00;;;14.30;99.90;;;;;;5055325;28;20392;-82
2022/11/01 02:39:32;;;;;;;8.55;3.55;;;14.30;99.90;;;;;;5054656;28;20047;-82
2022/11/01 02:41:58;;;;;;;8.95;3.65;;;14.30;99.90;;;;;;5047164;28;20064;-82
2022/11/01 02:44:30;;;;;;;9.50;3.15;;;14.20;99.90;;;;;;5054770;28;20479;-83
2022/11/01 02:47:00;;;;;;;7.60;3.25;;;14.20;99.90;;;;;;5054580;28;20041;-82
2022/11/01 02:49:41;;;;;;;6.22;3.20;;;14.20;99.90;;;;;;5054586;28;20391;-82
2022/11/01 02:52:11;;;;;;;6.10;2.80;;;14.20;99.90;;;;;;5053331;28;20044;-82
2022/11/01 02:54:41;;;;;;;9.88;3.30;;;14.30;99.90;;;;;;5040893;28;20044;-82
2022/11/01 02:57:16;;;;;;;8.05;3.03;;;14.30;99.90;;;;;;5045813;28;20049;-82
2022/11/01 02:59:44;;;;;;;9.48;3.40;;;14.30;99.90;;;;;;5018132;28;20060;-82
2022/11/01 03:02:17;;;;;;;7.43;4.32;;;14.40;99.90;;;;;;5040240;28;20491;-82
2022/11/01 03:04:43;;;;;;;9.85;3.13;;;14.40;99.90;;;;;;5054474;28;20036;-82
2022/11/01 03:07:11;;;;;;;9.60;3.33;;;14.50;99.90;;;;;;5037850;28;20380;-82
2022/11/01 03:09:38;;;;;;;7.65;3.08;;;14.50;99.90;;;;;;5038021;28;20372;-82
2022/11/01 03:12:07;;;;;;;5.25;2.70;;;14.60;99.90;;;;;;5054323;28;20077;-82
2022/11/01 03:14:56;;;;;;;5.50;2.85;;;14.60;99.90;;;;;;5053866;28;20522;-84
2022/11/01 03:17:32;;;;;;;6.38;2.75;;;14.60;99.90;;;;;;5054353;28;20111;-84
2022/11/01 03:20:04;;;;;;;;;;;14.60;99.90;;;;;;5054715;28;20048;-84
2022/11/01 03:22:37;;;;;;;6.63;3.00;;;14.70;99.90;;;;;;5037740;28;19924;-84
2022/11/01 03:28:00;;;;;;;6.47;2.95;;;14.90;99.90;;;;;;5049943;28;20402;-84
2022/11/01 03:30:28;;;;;;;8.20;3.30;;;14.70;99.90;;;;;;5054197;28;20041;-82
2022/11/01 03:32:56;;;;;;;6.72;3.03;;;14.80;99.90;;;;;;5038194;28;20425;-82
2022/11/01 03:35:26;;;;;;;6.65;2.90;;;14.80;99.90;;;;;;5037795;28;20468;-82
2022/11/01 03:37:55;;;;;;;7.57;3.03;;;14.70;99.90;;;;;;5037429;28;20048;-82
2022/11/01 03:40:23;;;;;;;5.20;2.85;;;14.60;99.90;;;;;;5053630;28;20127;-82
2022/11/01 03:42:52;;;;;;;6.93;2.67;;;14.60;99.90;;;;;;5053849;28;20037;-82
2022/11/01 03:45:22;;;;;;;6.75;2.97;;;14.50;99.90;;;;;;5035694;28;20041;-82
2022/11/01 03:47:48;;;;;;;8.57;3.10;;;14.50;99.90;;;;;;5050694;28;20044;-82
2022/11/01 03:50:24;;;;;;;8.55;3.55;;;14.60;99.90;;;;;;5053408;28;20398;-82
2022/11/01 03:52:50;;;;;;;8.63;3.17;;;14.60;99.90;;;;;;5053611;28;20052;-81
2022/11/01 03:55:17;;;;;;;5.30;2.90;;;14.60;99.90;;;;;;5053163;28;20041;-82
2022/11/01 03:57:45;;;;;;;8.75;2.65;;;14.60;99.90;;;;;;5035798;28;20059;-82
2022/11/01 04:00:22;;;;;;;6.25;2.95;;;14.70;99.90;;;;;;5036600;28;20064;-82
2022/11/01 04:02:49;;;;;;;6.72;3.60;;;14.70;99.90;;;;;;5036809;28;20076;-82
2022/11/01 04:05:16;;;;;;;5.82;3.55;;;14.80;99.90;;;;;;5041250;28;20046;-82
2022/11/01 04:07:42;;;;;;;4.93;2.50;;;14.80;99.90;;;;;;5051083;28;20041;-82
2022/11/01 04:10:09;;;;;;;4.95;2.80;;;14.80;99.90;;;;;;5053325;28;20029;-82
2022/11/01 04:12:35;;;;;;;7.10;2.95;;;14.90;99.90;;;;;;5036415;28;20060;-82
2022/11/01 04:20:31;;;;;;;6.25;2.95;;;15.10;99.90;;;;;;5038689;28;20044;-83
2022/11/01 04:23:06;;;;;;;11.57;3.47;;;15.10;99.90;;;;;;5035513;28;20179;-84
2022/11/01 04:25:33;;;;;;;6.55;2.63;;;15.20;99.90;;;;;;5034733;28;20045;-84
2022/11/01 04:27:59;;;;;;;5.78;2.30;;;15.20;99.90;;;;;;5052301;28;20076;-84
2022/11/01 04:30:26;;;;;;;6.32;2.42;;;15.20;99.90;;;;;;5051773;28;20040;-84
2022/11/01 04:32:52;;;;;;;6.68;2.85;;;15.20;99.90;;;;;;5052503;28;20037;-84
2022/11/01 04:35:18;;;;;;;6.30;2.80;;;15.20;99.90;;;;;;5032597;28;20502;-84
2022/11/01 04:37:45;;;;;;;5.43;2.53;;;15.20;99.90;;;;;;5044554;28;20037;-83
2022/11/01 04:40:12;;;;;;;5.55;2.58;;;15.20;99.90;;;;;;5036166;28;20044;-82
2022/11/01 04:42:38;;;;;;;5.43;2.80;;;15.10;99.90;;;;;;5052058;28;20040;-82
2022/11/01 04:45:06;;;;;;;6.80;2.72;;;15.20;99.90;;;;;;5050494;28;20044;-82
2022/11/01 04:47:32;;;;;;;6.80;3.00;;;15.20;99.90;;;;;;5052813;28;20125;-82
2022/11/01 04:49:57;;;;;;;8.30;2.58;;;15.30;99.90;;;;;;5052265;28;20457;-82
2022/11/01 04:52:23;;;;;;;9.48;3.22;;;15.30;99.90;;;;;;5035939;28;20040;-82
2022/11/01 04:54:49;;;;;;;7.10;2.60;;;15.20;99.90;;;;;;5052137;28;20036;-83
2022/11/01 04:57:24;;;;;;;8.95;2.55;;;15.20;99.90;;;;;;5035837;28;20110;-83
2022/11/01 04:59:51;;;;;;;5.20;2.45;;;15.20;99.90;;;;;;5032364;28;20049;-83
2022/11/01 05:02:17;;;;;;;5.25;2.40;;;15.20;99.90;;;;;;5046539;28;20065;-82
2022/11/01 05:04:43;;;;;;;6.10;2.63;;;15.20;99.90;;;;;;5048839;28;20427;-82
2022/11/01 05:07:09;;;;;;;9.95;3.25;;;15.20;99.90;;;;;;5020352;28;20099;-82
2022/11/01 05:09:35;;;;;;;5.07;2.30;;;15.20;99.90;;;;;;5008644;28;20098;-82
2022/11/01 05:12:00;;;;;;;7.05;2.70;;;15.30;99.90;;;;;;5019136;28;20501;-83
2022/11/01 05:14:26;;;;;;;4.35;2.40;;;15.20;99.90;;;;;;5003025;28;20083;-83
2022/11/01 05:16:56;;;;;;;4.05;1.92;;;15.30;99.90;;;;;;5035605;28;20468;-83
2022/11/01 05:19:22;;;;;;;6.97;2.92;;;15.20;99.90;;;;;;5035257;28;20044;-83
2022/11/01 05:21:48;;;;;;;3.88;1.60;;;15.30;99.90;;;;;;5035379;28;20041;-83
2022/11/01 05:24:14;;;;;;;3.03;1.58;;;15.20;99.90;;;;;;5044326;28;20038;-83
2022/11/01 05:26:40;;;;;;;3.72;1.83;;;15.20;99.90;;;;;;5017139;28;20484;-83
2022/11/01 05:29:05;;;;;;;1.67;1.08;;;15.10;99.90;;;;;;5026210;28;20033;-83
2022/11/01 05:31:31;;;;;;;2.53;1.13;;;15.00;99.90;;;;;;5046006;28;20045;-83
2022/11/01 05:33:57;;;;;;;1.90;1.00;;;15.00;99.90;;;;;;5018303;28;20044;-83
2022/11/01 05:36:23;;;;;;;3.22;0.90;;;14.90;99.90;;;;;;5047960;28;20042;-84
2022/11/01 05:38:48;;;;;;;1.58;0.77;;;14.80;99.90;;;;;;5020133;28;20087;-83
2022/11/01 05:41:14;;;;;;;1.13;0.90;;;14.70;99.90;;;;;;5026255;28;20069;-83
2022/11/01 05:43:40;;;;;;;3.20;0.93;;;14.70;99.90;;;;;;5030725;28;20037;-83
2022/11/01 05:46:06;;;;;;;0.82;0.82;;;14.70;99.90;;;;;;5055957;28;20076;-85
2022/11/01 05:48:32;;;;;;;1.00;0.90;;;14.70;99.90;;;;;;5036860;28;20360;-84
2022/11/01 05:50:58;;;;;;;2.45;1.40;;;14.70;99.90;;;;;;5039328;28;20037;-84
2022/11/01 05:53:24;;;;;;;2.38;1.17;;;14.70;99.90;;;;;;5038897;28;20486;-84
2022/11/01 05:55:50;;;;;;;5.00;1.13;;;14.60;99.90;;;;;;5038998;28;20087;-84
2022/11/01 05:58:15;;;;;;;5.47;1.25;;;14.60;99.90;;;;;;5055277;28;20052;-84
2022/11/01 06:00:41;;;;;;;2.83;1.02;;;14.50;99.90;;;;;;5039477;28;20048;-83
2022/11/01 06:03:07;;;;;;;1.85;0.93;;;14.40;99.90;;;;;;5038338;28;20087;-82
2022/11/01 06:05:33;;;;;;;1.90;1.10;;;14.20;99.90;;;;;;5055405;28;20119;-82
2022/11/01 06:08:00;;;;;;;1.80;0.90;;;14.20;99.90;;;;;;5055434;28;20079;-82
2022/11/01 06:10:26;;;;;;;1.38;0.60;;;14.10;99.90;;;;;;5022563;28;20570;-82
2022/11/01 06:12:53;;;;;;;2.72;0.73;;;14.00;99.90;;;;;;5055151;28;20768;-82
2022/11/01 06:15:19;;;;;;;2.85;0.85;;;13.90;99.90;;;;;;5038733;28;20053;-82
2022/11/01 06:17:44;;;;;;;4.07;1.25;;;13.90;99.90;;;;;;5055199;28;20097;-83
2022/11/01 06:20:10;;;;;;;2.95;0.90;;;13.80;99.90;;;;;;5055356;28;20068;-83
2022/11/01 06:22:36;;;;;;;1.65;0.63;;;13.80;99.90;;;;;;5038455;28;20080;-83
2022/11/01 06:25:04;;;;;;;1.77;0.85;;;13.70;99.90;;;;;;5037127;28;20044;-82
2022/11/01 06:27:30;;;;;;;1.65;0.50;;;13.70;99.90;;;;;;5023962;28;20045;-83
2022/11/01 06:29:56;;;;;;;2.05;1.13;;;13.70;99.90;;;;;;5047813;28;20036;-83
2022/11/01 06:32:22;;;;;;;3.38;0.90;;;13.60;99.90;;;;;;5049396;28;20483;-83
2022/11/01 06:34:48;;;;;;;7.10;0.95;;;13.60;99.90;;;;;;5039084;28;20041;-83
2022/11/01 06:37:14;;;;;;;2.65;1.00;;;13.50;99.90;;;;;;5055310;28;20071;-83
2022/11/01 06:39:39;;;;;;;6.65;0.95;;;13.50;99.90;;;;;;5055415;28;20033;-84
2022/11/01 06:42:05;;;;;;;2.55;0.52;;;13.50;99.90;;;;;;5038786;28;20459;-84
2022/11/01 06:44:31;;;;;;;3.15;0.80;;;13.50;99.90;;;;;;5021907;28;20071;-83
2022/11/01 06:46:57;;;;;;;2.20;0.88;;;13.40;99.90;;;;;;5038335;28;20044;-84
2022/11/01 06:49:22;;;;;;;3.67;0.90;;;13.40;99.90;;;;;;5037780;28;20529;-84
2022/11/01 06:51:48;;;;;;;3.85;1.52;;;13.40;99.90;;;;;;5054888;28;20041;-83
2022/11/01 06:54:14;;;;;;;1.25;0.95;;;13.40;99.90;;;;;;5021599;28;20045;-83
2022/11/01 06:56:39;;;;;;;2.40;0.98;;;13.40;99.90;;;;;;5038030;28;20044;-83
2022/11/01 06:59:05;;;;;;;2.20;0.73;;;13.40;99.90;;;;;;5037786;28;20491;-84
2022/11/01 07:01:31;;;;;;;5.80;0.93;;;13.30;99.90;;;;;;5052984;28;20042;-83
2022/11/01 07:03:57;;;;;;;2.10;0.55;;;13.30;99.90;;;;;;5037755;28;20040;-83
2022/11/01 07:06:27;;;;;;;4.03;0.95;;;;;;;;;;5038009;28;20087;-83
2022/11/01 07:08:53;;;;;;;5.03;1.40;;;13.50;99.90;;;;;;5056017;28;20099;-84
2022/11/01 07:11:19;;;;;;;7.28;1.30;;;13.50;99.90;;;;;;5054741;28;20495;-84
2022/11/01 07:13:44;;;;;;;2.28;0.77;;;13.60;99.90;;;;;;5054852;28;20044;-84
2022/11/01 07:16:10;;;;;;;1.52;0.50;;;13.60;99.90;;;;;;5054516;28;20501;-83
2022/11/01 07:18:36;;;;;;;4.95;0.95;;;13.60;99.90;;;;;;5054678;28;20044;-83
2022/11/01 07:21:03;;;;;;;2.42;0.75;;;13.50;99.90;;;;;;5054904;28;20045;-83
2022/11/01 07:23:29;;;;;;;2.10;0.70;;;13.60;99.90;;;;;;5054367;28;20029;-82
2022/11/01 07:25:54;;;;;;;4.55;1.45;;;13.70;99.90;;;;;;5055137;28;20132;-81
2022/11/01 07:28:20;;;;;;;3.70;0.75;;;14.00;99.90;;;;;;5054231;28;20373;-82
2022/11/01 07:30:48;;;;;;;5.75;1.63;;;14.30;99.90;;;;;;5053674;28;20063;-82
2022/11/01 07:33:13;;;;;;;4.28;1.15;;;14.30;99.90;;;;;;5054191;28;20438;-82
2022/11/01 07:35:39;;;;;;;3.83;0.90;;;14.70;99.90;;;;;;5021011;28;20045;-82
2022/11/01 07:38:05;;;;;;;2.58;0.90;;;14.70;99.90;;;;;;5022654;28;20056;-82
2022/11/01 07:40:30;;;;;;;5.63;1.45;;;14.60;99.90;;;;;;5045918;28;20052;-82
2022/11/01 07:43:00;;;;;;;6.90;1.40;;;14.60;99.90;;;;;;5026011;28;20045;-82
2022/11/01 07:45:31;;;;;;;7.90;1.50;;;14.80;99.90;;;;;;5045381;28;20045;-82
2022/11/01 07:48:01;;;;;;;3.35;1.20;;;14.80;99.90;;;;;;5043459;28;20033;-82
2022/11/01 07:50:30;;;;;;;6.07;0.73;;;14.70;99.90;;;;;;5033719;28;20084;-83
2022/11/01 07:53:00;;;;;;;4.00;0.70;;;14.70;99.90;;;;;;5050974;28;20446;-83
2022/11/01 07:55:27;;;;;;;8.85;1.20;;;14.70;99.90;;;;;;5050812;28;20041;-83
2022/11/01 07:57:53;;;;;;;4.22;1.30;;;14.60;99.90;;;;;;5033431;28;20037;-85
2022/11/01 08:00:21;;;;;;;15.05;1.27;;;14.60;99.90;;;;;;5029667;28;20563;-85
2022/11/01 08:02:47;;;;;;;6.43;1.20;;;14.80;99.90;;;;;;5055440;28;20104;-85
2022/11/01 08:05:13;;;;;;;6.93;1.27;;;15.10;99.90;;;;;;5021233;28;20045;-85
2022/11/01 08:07:39;;;;;;;4.30;1.10;;;15.10;99.90;;;;;;5040371;28;20487;-85
2022/11/01 08:10:07;;;;;;;6.38;1.10;;;15.00;99.90;;;;;;5055208;28;20112;-85
2022/11/01 08:12:46;;;;;;;6.45;1.20;;;14.90;99.90;;;;;;5093939;22;20433;-84
2022/11/01 08:15:12;;;;;;;12.02;2.13;;;14.80;99.90;;;;;;5077618;28;20079;-83
2022/11/01 08:17:38;;;;;;;6.15;1.38;;;14.80;99.90;;;;;;5073795;28;20364;-83
2022/11/01 08:20:05;;;;;;;4.70;1.10;;;14.80;99.90;;;;;;5055446;28;20562;-83
2022/11/01 08:22:31;;;;;;;6.13;2.17;;;14.80;99.90;;;;;;5089501;28;20094;-83
2022/11/01 08:24:57;;;;;;;7.22;1.20;;;14.70;99.90;;;;;;5089221;28;20056;-83
2022/11/01 08:27:23;;;;;;;5.05;1.20;;;14.60;99.90;;;;;;5061163;28;20040;-85
2022/11/01 08:29:49;;;;;;;6.75;1.05;;;14.60;99.90;;;;;;5074328;28;20048;-82
2022/11/01 08:32:19;;;;;;;4.47;1.00;;;14.50;99.90;;;;;;5054815;28;20077;-81
2022/11/01 08:34:45;;;;;;;8.48;1.63;;;14.50;99.90;;;;;;5082780;28;20040;-81
2022/11/01 08:37:10;;;;;;;4.93;1.38;;;14.40;99.90;;;;;;5073555;28;20051;-81
2022/11/01 08:39:37;;;;;;;7.30;1.50;;;14.40;99.90;;;;;;5070901;28;20490;-81
2022/11/01 08:42:04;;;;;;;4.97;1.02;;;14.40;99.90;;;;;;5087209;28;20141;-82
2022/11/01 08:44:31;;;;;;;6.32;1.50;;;14.40;99.90;;;;;;5073199;28;20091;-82
2022/11/01 08:46:59;;;;;;;8.77;1.60;;;14.40;99.90;;;;;;5073595;28;20050;-83
2022/11/01 08:49:26;;;;;;;5.50;1.25;;;14.30;99.90;;;;;;5073227;28;20047;-84
2022/11/01 08:51:52;;;;;;;9.82;1.20;;;14.30;99.90;;;;;;5073300;28;20068;-84
2022/11/01 08:54:18;;;;;;;6.10;1.55;;;;;;;;;;5069741;28;20048;-84
2022/11/01 08:56:43;;;;;;;7.72;2.65;;;16.10;99.90;;;;;;5043081;28;20063;-85
2022/11/01 08:59:10;;;;;;;7.45;1.92;;;16.30;99.90;;;;;;5069071;28;20033;-85
2022/11/01 09:01:37;;;;;;;5.32;1.42;;;16.30;99.90;;;;;;5069832;28;20060;-84
2022/11/01 09:04:04;;;;;;;10.25;1.77;;;16.30;99.90;;;;;;5068803;28;20036;-85
2022/11/01 09:06:30;;;;;;;3.47;1.00;;;16.30;99.90;;;;;;5072692;28;20073;-84
2022/11/01 09:08:56;;;;;;;9.25;1.63;;;16.00;99.90;;;;;;5072792;28;20561;-84
2022/11/01 09:11:24;;;;;;;4.43;2.00;;;16.00;99.90;;;;;;5071867;28;20033;-84
2022/11/01 09:13:50;;;;;;;10.18;2.00;;;16.10;99.90;;;;;;5056222;28;20070;-84
2022/11/01 09:16:16;;;;;;;8.40;1.63;;;16.10;99.90;;;;;;5072444;28;20040;-84
2022/11/01 09:18:42;;;;;;;6.90;1.38;;;16.00;99.90;;;;;;5072579;28;20093;-84
2022/11/01 09:21:08;;;;;;;7.32;1.48;;;16.10;99.90;;;;;;5068091;28;20091;-83
2022/11/01 09:23:34;;;;;;;9.35;2.17;;;16.10;99.90;;;;;;5048217;28;20089;-84
2022/11/01 09:26:05;;;;;;;4.95;1.48;;;16.00;99.90;;;;;;5038537;28;20049;-84
2022/11/01 09:28:32;;;;;;;5.35;1.27;;;16.00;99.90;;;;;;5055335;28;20475;-84
2022/11/01 09:31:06;;;;;;;3.70;1.30;;;16.00;99.90;;;;;;5055534;28;20127;-84
2022/11/01 09:33:32;;;;;;;6.65;1.58;;;15.90;99.90;;;;;;5055264;28;20033;-84
2022/11/01 09:35:59;;;;;;;6.85;1.63;;;15.80;99.90;;;;;;5060989;28;20374;-84
2022/11/01 09:38:25;;;;;;;5.50;1.63;;;16.00;99.90;;;;;;5074604;28;20076;-85
2022/11/01 09:41:34;;;;;;;5.28;1.40;;;16.50;99.90;;;;;;5056562;28;20036;-86
2022/11/01 09:44:01;;;;;;;4.88;1.25;;;;;;;;;;5057716;28;20079;-85
2022/11/01 09:46:34;;;;;;;4.07;1.45;;;17.50;99.90;;;;;;5074417;28;20044;-85
2022/11/01 09:49:02;;;;;;;7.15;1.60;;;18.10;99.90;;;;;;5057791;28;20051;-86
2022/11/01 09:51:29;;;;;;;5.65;1.60;;;19.10;99.90;;;;;;5074314;28;20398;-85
2022/11/01 09:53:59;;;;;;;7.97;1.50;;;19.00;99.90;;;;;;5057497;28;20040;-83
2022/11/01 09:56:33;;;;;;;5.82;1.10;;;18.70;99.90;;;;;;5074531;28;20037;-82
2022/11/01 09:59:07;;;;;;;7.00;1.73;;;18.10;99.90;;;;;;5074634;28;20536;-82
2022/11/01 10:01:43;;;;;;;9.73;1.08;;;17.50;99.90;;;;;;5058711;28;20045;-82
2022/11/01 10:04:08;;;;;;;5.78;1.63;;;17.30;99.90;;;;;;5069531;28;20044;-82
2022/11/01 10:06:58;;;;;;;11.20;1.77;;;17.10;99.90;;;;;;5074052;28;20051;-82
2022/11/01 10:09:57;;;;;;;3.80;1.42;;;16.70;99.90;;;;;;5074468;28;20044;-82
2022/11/01 10:12:26;;;;;;;5.55;1.13;;;16.70;99.90;;;;;;5072687;28;20039;-85
2022/11/01 10:15:29;;;;;;;7.60;1.60;;;16.80;99.90;;;;;;5074198;28;20458;-86
2022/11/01 10:17:59;;;;;;;9.50;1.90;;;16.90;99.90;;;;;;5073889;28;20051;-86
2022/11/01 10:20:32;;;;;;;5.63;1.75;;;17.20;99.90;;;;;;5073921;28;20046;-86
2022/11/01 10:22:59;;;;;;;7.65;1.85;;;17.80;99.90;;;;;;5061963;28;20116;-86
2022/11/01 10:25:32;;;;;;;4.30;1.83;;;18.20;99.90;;;;;;5047930;28;20115;-86
2022/11/01 10:28:04;;;;;;;15.60;1.80;;;18.60;99.90;;;;;;5074102;28;20040;-82
2022/11/01 10:30:39;;;;;;;9.57;1.52;;;18.60;99.90;;;;;;5073649;28;20040;-82
2022/11/01 10:33:25;;;;;;;6.67;1.80;;;18.50;99.90;;;;;;5073313;28;20048;-82
2022/11/01 10:36:01;;;;;;;;;;;18.40;99.90;;;;;;5072922;28;20058;-82
2022/11/01 10:38:36;;;;;;;5.32;1.17;;;18.20;99.90;;;;;;5073552;28;19916;-82
2022/11/01 10:41:24;;;;;;;3.58;1.80;;;17.80;99.90;;;;;;5073314;28;20044;-82
2022/11/01 10:43:57;;;;;;;5.70;1.58;;;17.60;99.90;;;;;;5056476;28;20044;-82
2022/11/01 10:46:28;;;;;;;7.47;1.55;;;17.00;99.90;;;;;;5073100;28;20044;-82
2022/11/01 10:48:58;;;;;;;7.50;1.85;;;16.90;99.90;;;;;;5073538;28;20417;-82
2022/11/01 10:51:27;;;;;;;6.25;1.00;;;16.50;99.90;;;;;;5073346;28;20043;-82
2022/11/01 10:53:57;;;;;;;7.57;1.40;;;16.20;99.90;;;;;;5073507;28;20471;-82
2022/11/01 10:56:40;;;;;;;4.25;1.48;;;16.10;99.90;;;;;;5053778;28;20041;-82
2022/11/01 10:59:14;;;;;;;3.58;1.08;;;15.90;99.90;;;;;;5053122;28;20483;-82
2022/11/01 11:01:41;;;;;;;9.70;2.00;;;16.00;99.90;;;;;;5052956;28;20504;-82
2022/11/01 11:04:13;;;;;;;11.02;1.58;;;16.10;99.90;;;;;;5036386;28;20041;-82
2022/11/01 11:06:39;;;;;;;7.30;1.70;;;16.20;99.90;;;;;;5072398;28;20120;-82
2022/11/01 11:09:06;;;;;;;9.35;1.85;;;16.20;99.90;;;;;;5073058;28;20044;-82
2022/11/01 11:11:43;;;;;;;2.67;1.10;;;16.10;99.90;;;;;;5072498;28;20046;-82
2022/11/01 11:14:11;;;;;;;6.05;1.50;;;15.90;99.90;;;;;;5072651;28;20063;-82
2022/11/01 11:16:45;;;;;;;11.43;2.47;;;15.90;99.90;;;;;;5072352;28;20041;-82
2022/11/01 11:19:18;;;;;;;7.75;1.58;;;15.90;99.90;;;;;;5072957;28;20045;-82
2022/11/01 11:21:46;;;;;;;5.70;1.35;;;16.20;99.90;;;;;;5072826;28;20044;-82
2022/11/01 11:24:18;;;;;;;5.63;1.38;;;16.40;99.90;;;;;;5072855;28;20041;-82
2022/11/01 11:26:47;;;;;;;5.32;1.45;;;16.40;99.90;;;;;;5055819;28;20080;-82
2022/11/01 11:29:47;;;;;;;5.60;1.63;;;16.40;99.90;;;;;;5072308;28;20040;-82
2022/11/01 11:32:22;;;;;;;7.20;2.30;;;16.30;99.90;;;;;;5055767;28;20040;-81
2022/11/01 11:34:57;;;;;;;10.75;1.75;;;16.30;99.90;;;;;;5055907;28;20033;-86
2022/11/01 11:37:26;;;;;;;6.07;1.67;;;16.30;99.90;;;;;;5071955;28;20036;-86
2022/11/01 11:40:11;;;;;;;5.43;1.08;;;16.20;99.90;;;;;;5072513;28;20044;-85
2022/11/01 11:42:37;;;;;;;6.85;1.50;;;16.10;99.90;;;;;;5072319;28;20041;-85
2022/11/01 11:45:14;;;;;;;9.32;1.33;;;16.10;99.90;;;;;;5072299;28;20044;-86
2022/11/01 11:47:40;;;;;;;8.65;1.67;;;16.10;99.90;;;;;;5072134;28;20044;-86
2022/11/01 11:50:31;;;;;;;2.75;1.00;;;16.30;99.90;;;;;;5055558;28;20048;-84
2022/11/01 11:53:00;;;;;;;3.50;0.90;;;16.40;99.90;;;;;;5072129;28;20044;-84
2022/11/01 11:55:36;;;;;;;3.92;1.05;;;16.40;99.90;;;;;;5072119;28;20490;-84
2022/11/01 11:58:04;;;;;;;;;;;16.40;99.90;;;;;;5072056;28;20299;-84
2022/11/01 12:00:32;;;;;;;6.10;1.38;;;16.40;99.90;;;;;;5072413;28;20320;-84
2022/11/01 12:03:04;;;;;;;9.43;1.67;;;16.30;99.90;;;;;;5072305;28;20355;-84
2022/11/01 12:05:29;;;;;;;6.40;1.13;;;16.30;99.90;;;;;;5072055;28;20044;-84
2022/11/01 12:07:56;;;;;;;4.03;1.42;;;16.20;99.90;;;;;;5071858;28;20086;-82
2022/11/01 12:10:44;;;;;;;6.43;0.80;;;16.20;99.90;;;;;;5067994;28;20068;-82
2022/11/01 12:13:36;;;;;;;6.07;1.20;;;16.20;99.90;;;;;;5076514;28;20057;-82
2022/11/01 12:16:16;;;;;;;7.53;1.30;;;16.30;99.90;;;;;;5043170;28;20044;-82
2022/11/01 12:18:51;;;;;;;6.28;1.02;;;16.20;99.90;;;;;;5067193;28;20064;-82
2022/11/01 12:21:41;;;;;;;3.83;1.38;;;16.30;99.90;;;;;;5065174;28;20131;-82
2022/11/01 12:24:25;;;;;;;3.65;1.13;;;16.30;99.90;;;;;;5066979;28;20128;-86
2022/11/01 12:26:54;;;;;;;9.05;1.80;;;16.30;99.90;;;;;;5070814;28;20131;-85
2022/11/01 12:29:33;;;;;;;11.45;2.22;;;16.30;99.90;;;;;;5050744;28;20044;-85
2022/11/01 12:32:13;;;;;;;7.10;2.05;;;16.20;99.90;;;;;;5054633;28;20111;-86
2022/11/01 12:34:41;;;;;;;6.25;1.52;;;16.10;99.90;;;;;;5035223;28;20040;-85
2022/11/01 12:37:15;;;;;;;4.40;1.05;;;16.10;99.90;;;;;;5035173;28;20040;-85
2022/11/01 12:40:15;;;;;;;5.00;1.73;;;16.30;99.90;;;;;;5051773;28;20128;-85
2022/11/01 12:42:57;;;;;;;4.07;1.17;;;16.30;99.90;;;;;;5054045;28;20048;-81
2022/11/01 12:45:27;;;;;;;2.70;0.90;;;16.30;99.90;;;;;;5071187;28;20040;-81
2022/11/01 12:47:58;;;;;;;6.65;1.42;;;16.40;99.90;;;;;;5059177;28;20506;-81
2022/11/01 12:50:51;;;;;;;5.25;1.58;;;16.60;99.90;;;;;;5038265;28;20118;-82
2022/11/01 12:53:25;;;;;;;8.30;2.05;;;16.60;99.90;;;;;;5054304;28;20051;-82
2022/11/01 12:55:51;;;;;;;3.33;1.23;;;16.60;99.90;;;;;;5054337;28;20047;-82
2022/11/01 12:58:20;;;;;;;3.33;0.88;;;16.60;99.90;;;;;;5072788;28;20037;-85
2022/11/01 13:01:20;;;;;;;4.13;0.95;;;16.60;99.90;;;;;;5058666;28;20036;-86
2022/11/01 13:04:19;;;;;;;8.15;1.80;;;16.60;99.90;;;;;;5075200;28;20048;-85
2022/11/01 13:07:13;;;;;;;3.05;1.13;;;16.70;99.90;;;;;;5075563;28;20032;-86
2022/11/01 13:09:52;;;;;;;7.47;1.05;;;16.90;99.90;;;;;;5075265;28;20517;-86
2022/11/01 13:12:49;;;;;;;5.72;1.13;;;17.00;99.90;;;;;;5074852;28;20491;-85